sensor_id;sensor_type;location;lat;lon;timestamp;temperature;humidity
49218;DHT22;35045;51.194;7.268;2023-12-14T00:02:17;8.60;99.90
49218;DHT22;35045;51.194;7.268;2023-12-14T00:04:43;8.60;99.90
49218;DHT22;35045;51.194;7.268;2023-12-14T00:07:09;8.70;99.90
49218;DHT22;35045;51.194;7.268;2023-12-14T00:09:36;8.80;99.90
49218;DHT22;35045;51.194;7.268;2023-12-14T00:12:03;8.80;99.90
49218;DHT22;35045;51.194;7.268;2023-12-14T00:14:29;8.90;99.90
49218;DHT22;35045;51.194;7.268;2023-12-14T00:16:55;8.90;99.90
49218;DHT22;35045;51.194;7.268;2023-12-14T00:19:25;8.90;99.90
49218;DHT22;35045;51.194;7.268;2023-12-14T00:21:51;8.90;99.90
49218;DHT22;35045;51.194;7.268;2023-12-14T00:24:17;8.90;99.90
49218;DHT22;35045;51.194;7.268;2023-12-14T00:26:44;9.00;99.90
49218;DHT22;35045;51.194;7.268;2023-12-14T00:29:10;8.90;99.90
49218;DHT22;35045;51.194;7.268;2023-12-14T00:31:36;8.90;99.90
49218;DHT22;35045;51.194;7.268;2023-12-14T00:34:02;8.80;99.90
49218;DHT22;35045;51.194;7.268;2023-12-14T00:36:29;8.80;99.90
49218;DHT22;35045;51.194;7.268;2023-12-14T00:38:55;8.70;99.90
49218;DHT22;35045;51.194;7.268;2023-12-14T00:41:22;8.60;99.90
49218;DHT22;35045;51.194;7.268;2023-12-14T00:43:49;8.60;99.90
49218;DHT22;35045;51.194;7.268;2023-12-14T00:46:15;8.60;99.90
49218;DHT22;35045;51.194;7.268;2023-12-14T00:48:41;8.70;99.90
49218;DHT22;35045;51.194;7.268;2023-12-14T00:51:07;8.50;99.90
49218;DHT22;35045;51.194;7.268;2023-12-14T00:53:34;8.60;99.90
49218;DHT22;35045;51.194;7.268;2023-12-14T00:56:00;8.60;99.90
49218;DHT22;35045;51.194;7.268;2023-12-14T00:58:26;8.70;99.90
49218;DHT22;35045;51.194;7.268;2023-12-14T01:00:52;8.80;99.90
49218;DHT22;35045;51.194;7.268;2023-12-14T01:03:20;8.70;99.90
49218;DHT22;35045;51.194;7.268;2023-12-14T01:05:47;8.60;99.90
49218;DHT22;35045;51.194;7.268;2023-12-14T01:08:13;8.50;99.90
49218;DHT22;35045;51.194;7.268;2023-12-14T01:10:40;8.50;99.90
49218;DHT22;35045;51.194;7.268;2023-12-14T01:13:07;8.50;99.90
49218;DHT22;35045;51.194;7.268;2023-12-14T01:15:33;8.40;99.90
49218;DHT22;35045;51.194;7.268;2023-12-14T01:18:00;8.50;99.90
49218;DHT22;35045;51.194;7.268;2023-12-14T01:20:26;8.50;99.90
49218;DHT22;35045;51.194;7.268;2023-12-14T01:22:53;8.40;99.90
49218;DHT22;35045;51.194;7.268;2023-12-14T01:25:19;8.40;99.90
49218;DHT22;35045;51.194;7.268;2023-12-14T01:27:45;8.50;99.90
49218;DHT22;35045;51.194;7.268;2023-12-14T01:30:12;8.40;99.90
49218;DHT22;35045;51.194;7.268;2023-12-14T01:32:38;8.40;99.90
49218;DHT22;35045;51.194;7.268;2023-12-14T01:35:05;8.20;99.90
49218;DHT22;35045;51.194;7.268;2023-12-14T01:37:31;8.20;99.90
49218;DHT22;35045;51.194;7.268;2023-12-14T01:39:57;7.90;99.90
49218;DHT22;35045;51.194;7.268;2023-12-14T01:42:23;7.90;99.90
49218;DHT22;35045;51.194;7.268;2023-12-14T01:44:50;7.90;99.90
49218;DHT22;35045;51.194;7.268;2023-12-14T01:47:16;7.90;99.90
49218;DHT22;35045;51.194;7.268;2023-12-14T01:49:43;7.80;99.90
49218;DHT22;35045;51.194;7.268;2023-12-14T01:52:09;7.80;99.90
49218;DHT22;35045;51.194;7.268;2023-12-14T01:54:36;7.90;99.90
49218;DHT22;35045;51.194;7.268;2023-12-14T01:57:02;8.00;99.90
49218;DHT22;35045;51.194;7.268;2023-12-14T01:59:28;7.90;99.90
49218;DHT22;35045;51.194;7.268;2023-12-14T02:01:55;8.00;99.90
49218;DHT22;35045;51.194;7.268;2023-12-14T02:04:24;8.00;99.90
49218;DHT22;35045;51.194;7.268;2023-12-14T02:06:51;7.80;99.90
49218;DHT22;35045;51.194;7.268;2023-12-14T02:09:17;7.70;99.90
49218;DHT22;35045;51.194;7.268;2023-12-14T02:11:43;7.70;99.90
49218;DHT22;35045;51.194;7.268;2023-12-14T02:14:10;7.60;99.90
49218;DHT22;35045;51.194;7.268;2023-12-14T02:16:37;7.70;99.90
49218;DHT22;35045;51.194;7.268;2023-12-14T02:19:05;7.70;99.90
49218;DHT22;35045;51.194;7.268;2023-12-14T02:21:31;7.70;99.90
49218;DHT22;35045;51.194;7.268;2023-12-14T02:23:57;7.60;99.90
49218;DHT22;35045;51.194;7.268;2023-12-14T02:26:23;7.50;99.90
49218;DHT22;35045;51.194;7.268;2023-12-14T02:28:50;7.60;99.90
49218;DHT22;35045;51.194;7.268;2023-12-14T02:31:18;7.60;99.90
49218;DHT22;35045;51.194;7.268;2023-12-14T02:33:45;7.40;99.90
49218;DHT22;35045;51.194;7.268;2023-12-14T02:36:11;7.30;99.90
49218;DHT22;35045;51.194;7.268;2023-12-14T02:38:37;7.30;99.90
49218;DHT22;35045;51.194;7.268;2023-12-14T02:41:04;7.40;99.90
49218;DHT22;35045;51.194;7.268;2023-12-14T02:43:30;7.40;99.90
49218;DHT22;35045;51.194;7.268;2023-12-14T02:45:56;7.30;99.90
49218;DHT22;35045;51.194;7.268;2023-12-14T02:48:28;7.30;99.90
49218;DHT22;35045;51.194;7.268;2023-12-14T02:50:57;7.10;99.90
49218;DHT22;35045;51.194;7.268;2023-12-14T02:53:26;7.00;99.90
49218;DHT22;35045;51.194;7.268;2023-12-14T02:55:52;7.00;99.90
49218;DHT22;35045;51.194;7.268;2023-12-14T02:58:19;6.90;99.90
49218;DHT22;35045;51.194;7.268;2023-12-14T03:00:45;6.90;99.90
49218;DHT22;35045;51.194;7.268;2023-12-14T03:03:11;6.90;99.90
49218;DHT22;35045;51.194;7.268;2023-12-14T03:05:37;6.80;99.90
49218;DHT22;35045;51.194;7.268;2023-12-14T03:08:04;6.80;99.90
49218;DHT22;35045;51.194;7.268;2023-12-14T03:10:30;6.80;99.90
49218;DHT22;35045;51.194;7.268;2023-12-14T03:12:56;6.90;99.90
49218;DHT22;35045;51.194;7.268;2023-12-14T03:15:22;7.00;99.90
49218;DHT22;35045;51.194;7.268;2023-12-14T03:17:49;6.90;99.90
49218;DHT22;35045;51.194;7.268;2023-12-14T03:20:15;6.80;99.90
49218;DHT22;35045;51.194;7.268;2023-12-14T03:22:41;6.80;99.90
49218;DHT22;35045;51.194;7.268;2023-12-14T03:25:09;6.60;99.90
49218;DHT22;35045;51.194;7.268;2023-12-14T03:27:38;6.50;99.90
49218;DHT22;35045;51.194;7.268;2023-12-14T03:30:05;6.50;99.90
49218;DHT22;35045;51.194;7.268;2023-12-14T03:32:34;6.40;99.90
49218;DHT22;35045;51.194;7.268;2023-12-14T03:35:01;6.50;99.90
49218;DHT22;35045;51.194;7.268;2023-12-14T03:37:27;6.50;99.90
49218;DHT22;35045;51.194;7.268;2023-12-14T03:39:53;6.70;99.90
49218;DHT22;35045;51.194;7.268;2023-12-14T03:42:19;6.60;99.90
49218;DHT22;35045;51.194;7.268;2023-12-14T03:44:45;6.70;99.90
49218;DHT22;35045;51.194;7.268;2023-12-14T03:47:12;6.60;99.90
49218;DHT22;35045;51.194;7.268;2023-12-14T03:49:38;6.60;99.90
49218;DHT22;35045;51.194;7.268;2023-12-14T03:52:05;6.60;99.90
49218;DHT22;35045;51.194;7.268;2023-12-14T03:54:31;6.60;99.90
49218;DHT22;35045;51.194;7.268;2023-12-14T03:56:57;6.70;99.90
49218;DHT22;35045;51.194;7.268;2023-12-14T03:59:23;6.70;99.90
49218;DHT22;35045;51.194;7.268;2023-12-14T04:01:49;6.70;99.90
49218;DHT22;35045;51.194;7.268;2023-12-14T04:04:16;6.80;99.90
49218;DHT22;35045;51.194;7.268;2023-12-14T04:06:42;6.70;99.90
49218;DHT22;35045;51.194;7.268;2023-12-14T04:09:08;6.70;99.90
49218;DHT22;35045;51.194;7.268;2023-12-14T04:11:34;6.80;99.90
49218;DHT22;35045;51.194;7.268;2023-12-14T04:14:00;6.80;99.90
49218;DHT22;35045;51.194;7.268;2023-12-14T04:16:27;6.80;99.90
49218;DHT22;35045;51.194;7.268;2023-12-14T04:18:53;6.90;99.90
49218;DHT22;35045;51.194;7.268;2023-12-14T04:21:19;6.90;99.90
49218;DHT22;35045;51.194;7.268;2023-12-14T04:23:45;6.80;99.90
49218;DHT22;35045;51.194;7.268;2023-12-14T04:26:11;7.00;99.90
49218;DHT22;35045;51.194;7.268;2023-12-14T04:28:39;7.00;99.90
49218;DHT22;35045;51.194;7.268;2023-12-14T04:31:06;6.90;99.90
49218;DHT22;35045;51.194;7.268;2023-12-14T04:33:32;6.80;99.90
49218;DHT22;35045;51.194;7.268;2023-12-14T04:35:59;6.80;99.90
49218;DHT22;35045;51.194;7.268;2023-12-14T04:38:25;6.90;99.90
49218;DHT22;35045;51.194;7.268;2023-12-14T04:40:51;6.90;99.90
49218;DHT22;35045;51.194;7.268;2023-12-14T04:43:18;6.80;99.90
49218;DHT22;35045;51.194;7.268;2023-12-14T04:45:44;6.70;99.90
49218;DHT22;35045;51.194;7.268;2023-12-14T04:48:10;6.60;99.90
49218;DHT22;35045;51.194;7.268;2023-12-14T04:50:36;6.40;99.90
49218;DHT22;35045;51.194;7.268;2023-12-14T04:53:03;6.20;99.90
49218;DHT22;35045;51.194;7.268;2023-12-14T04:55:29;6.20;99.90
49218;DHT22;35045;51.194;7.268;2023-12-14T04:57:55;6.20;99.90
49218;DHT22;35045;51.194;7.268;2023-12-14T05:00:21;6.00;99.90
49218;DHT22;35045;51.194;7.268;2023-12-14T05:02:48;6.00;99.90
49218;DHT22;35045;51.194;7.268;2023-12-14T05:05:34;5.90;99.90
49218;DHT22;35045;51.194;7.268;2023-12-14T05:08:00;5.90;99.90
49218;DHT22;35045;51.194;7.268;2023-12-14T05:10:26;5.90;99.90
49218;DHT22;35045;51.194;7.268;2023-12-14T05:12:52;5.90;99.90
49218;DHT22;35045;51.194;7.268;2023-12-14T05:15:19;6.00;99.90
49218;DHT22;35045;51.194;7.268;2023-12-14T05:17:45;6.10;99.90
49218;DHT22;35045;51.194;7.268;2023-12-14T05:20:12;6.10;99.90
49218;DHT22;35045;51.194;7.268;2023-12-14T05:22:38;6.30;99.90
49218;DHT22;35045;51.194;7.268;2023-12-14T05:25:05;6.40;99.90
49218;DHT22;35045;51.194;7.268;2023-12-14T05:27:31;6.40;99.90
49218;DHT22;35045;51.194;7.268;2023-12-14T05:29:57;6.50;99.90
49218;DHT22;35045;51.194;7.268;2023-12-14T05:32:23;6.50;99.90
49218;DHT22;35045;51.194;7.268;2023-12-14T05:34:49;6.50;99.90
49218;DHT22;35045;51.194;7.268;2023-12-14T05:37:16;6.60;99.90
49218;DHT22;35045;51.194;7.268;2023-12-14T05:39:42;6.60;99.90
49218;DHT22;35045;51.194;7.268;2023-12-14T05:42:09;6.50;99.90
49218;DHT22;35045;51.194;7.268;2023-12-14T05:44:35;6.50;99.90
49218;DHT22;35045;51.194;7.268;2023-12-14T05:47:01;6.30;99.90
49218;DHT22;35045;51.194;7.268;2023-12-14T05:49:28;6.30;99.90
49218;DHT22;35045;51.194;7.268;2023-12-14T05:51:54;6.20;99.90
49218;DHT22;35045;51.194;7.268;2023-12-14T05:54:20;6.30;99.90
49218;DHT22;35045;51.194;7.268;2023-12-14T05:56:46;6.10;99.90
49218;DHT22;35045;51.194;7.268;2023-12-14T05:59:12;6.10;99.90
49218;DHT22;35045;51.194;7.268;2023-12-14T06:01:39;6.20;99.90
49218;DHT22;35045;51.194;7.268;2023-12-14T06:04:05;6.40;99.90
49218;DHT22;35045;51.194;7.268;2023-12-14T06:06:31;6.50;99.90
49218;DHT22;35045;51.194;7.268;2023-12-14T06:08:57;6.50;99.90
49218;DHT22;35045;51.194;7.268;2023-12-14T06:11:23;6.60;99.90
49218;DHT22;35045;51.194;7.268;2023-12-14T06:13:50;6.50;99.90
49218;DHT22;35045;51.194;7.268;2023-12-14T06:16:16;6.40;99.90
49218;DHT22;35045;51.194;7.268;2023-12-14T06:18:42;6.30;99.90
49218;DHT22;35045;51.194;7.268;2023-12-14T06:21:11;6.30;99.90
49218;DHT22;35045;51.194;7.268;2023-12-14T06:23:38;6.20;99.90
49218;DHT22;35045;51.194;7.268;2023-12-14T06:26:04;6.20;99.90
49218;DHT22;35045;51.194;7.268;2023-12-14T06:28:30;6.30;99.90
49218;DHT22;35045;51.194;7.268;2023-12-14T06:30:57;6.40;99.90
49218;DHT22;35045;51.194;7.268;2023-12-14T06:33:23;6.40;99.90
49218;DHT22;35045;51.194;7.268;2023-12-14T06:35:49;6.40;99.90
49218;DHT22;35045;51.194;7.268;2023-12-14T06:38:16;6.40;99.90
49218;DHT22;35045;51.194;7.268;2023-12-14T06:40:42;6.30;99.90
49218;DHT22;35045;51.194;7.268;2023-12-14T06:43:08;6.30;99.90
49218;DHT22;35045;51.194;7.268;2023-12-14T06:45:37;6.40;99.90
49218;DHT22;35045;51.194;7.268;2023-12-14T06:48:03;6.20;99.90
49218;DHT22;35045;51.194;7.268;2023-12-14T06:50:30;6.20;99.90
49218;DHT22;35045;51.194;7.268;2023-12-14T06:52:56;6.20;99.90
49218;DHT22;35045;51.194;7.268;2023-12-14T06:55:22;6.00;99.90
49218;DHT22;35045;51.194;7.268;2023-12-14T06:57:48;6.00;99.90
49218;DHT22;35045;51.194;7.268;2023-12-14T07:00:14;5.90;99.90
49218;DHT22;35045;51.194;7.268;2023-12-14T07:02:42;6.00;99.90
49218;DHT22;35045;51.194;7.268;2023-12-14T07:05:08;6.10;99.90
49218;DHT22;35045;51.194;7.268;2023-12-14T07:07:34;6.20;99.90
49218;DHT22;35045;51.194;7.268;2023-12-14T07:10:00;6.30;99.90
49218;DHT22;35045;51.194;7.268;2023-12-14T07:12:27;6.20;99.90
49218;DHT22;35045;51.194;7.268;2023-12-14T07:14:53;6.10;99.90
49218;DHT22;35045;51.194;7.268;2023-12-14T07:17:19;6.20;99.90
49218;DHT22;35045;51.194;7.268;2023-12-14T07:19:46;6.10;99.90
49218;DHT22;35045;51.194;7.268;2023-12-14T07:22:12;6.10;99.90
49218;DHT22;35045;51.194;7.268;2023-12-14T07:24:38;6.20;99.90
49218;DHT22;35045;51.194;7.268;2023-12-14T07:27:05;6.10;99.90
49218;DHT22;35045;51.194;7.268;2023-12-14T07:29:31;6.20;99.90
49218;DHT22;35045;51.194;7.268;2023-12-14T07:31:57;6.20;99.90
49218;DHT22;35045;51.194;7.268;2023-12-14T07:34:24;6.10;99.90
49218;DHT22;35045;51.194;7.268;2023-12-14T07:36:50;6.10;99.90
49218;DHT22;35045;51.194;7.268;2023-12-14T07:39:17;6.10;99.90
49218;DHT22;35045;51.194;7.268;2023-12-14T07:41:43;6.20;99.90
49218;DHT22;35045;51.194;7.268;2023-12-14T07:44:09;6.20;99.90
49218;DHT22;35045;51.194;7.268;2023-12-14T07:46:35;6.00;99.90
49218;DHT22;35045;51.194;7.268;2023-12-14T07:49:05;6.00;99.90
49218;DHT22;35045;51.194;7.268;2023-12-14T07:51:31;6.10;99.90
49218;DHT22;35045;51.194;7.268;2023-12-14T07:53:57;6.00;99.90
49218;DHT22;35045;51.194;7.268;2023-12-14T07:56:24;6.10;99.90
49218;DHT22;35045;51.194;7.268;2023-12-14T07:58:53;6.00;99.90
49218;DHT22;35045;51.194;7.268;2023-12-14T08:01:19;5.90;99.90
49218;DHT22;35045;51.194;7.268;2023-12-14T08:03:46;6.00;99.90
49218;DHT22;35045;51.194;7.268;2023-12-14T08:06:12;6.10;99.90
49218;DHT22;35045;51.194;7.268;2023-12-14T08:08:39;6.10;99.90
49218;DHT22;35045;51.194;7.268;2023-12-14T08:11:06;5.90;99.90
49218;DHT22;35045;51.194;7.268;2023-12-14T08:13:32;5.90;99.90
49218;DHT22;35045;51.194;7.268;2023-12-14T08:15:58;5.90;99.90
49218;DHT22;35045;51.194;7.268;2023-12-14T08:18:24;5.90;99.90
49218;DHT22;35045;51.194;7.268;2023-12-14T08:20:50;5.80;99.90
49218;DHT22;35045;51.194;7.268;2023-12-14T08:23:21;5.80;99.90
49218;DHT22;35045;51.194;7.268;2023-12-14T08:25:47;5.80;99.90
49218;DHT22;35045;51.194;7.268;2023-12-14T08:28:14;5.90;99.90
49218;DHT22;35045;51.194;7.268;2023-12-14T08:30:40;5.80;99.90
49218;DHT22;35045;51.194;7.268;2023-12-14T08:33:06;5.90;99.90
49218;DHT22;35045;51.194;7.268;2023-12-14T08:35:33;5.80;99.90
49218;DHT22;35045;51.194;7.268;2023-12-14T08:38:00;5.90;99.90
49218;DHT22;35045;51.194;7.268;2023-12-14T08:40:26;5.80;99.90
49218;DHT22;35045;51.194;7.268;2023-12-14T08:42:52;5.80;99.90
49218;DHT22;35045;51.194;7.268;2023-12-14T08:45:19;5.70;99.90
49218;DHT22;35045;51.194;7.268;2023-12-14T08:47:45;5.70;99.90
49218;DHT22;35045;51.194;7.268;2023-12-14T08:50:11;5.50;99.90
49218;DHT22;35045;51.194;7.268;2023-12-14T08:52:38;5.50;99.90
49218;DHT22;35045;51.194;7.268;2023-12-14T08:55:05;5.50;99.90
49218;DHT22;35045;51.194;7.268;2023-12-14T08:57:31;5.40;99.90
49218;DHT22;35045;51.194;7.268;2023-12-14T08:59:57;5.50;99.90
49218;DHT22;35045;51.194;7.268;2023-12-14T09:02:24;5.60;99.90
49218;DHT22;35045;51.194;7.268;2023-12-14T09:04:50;5.60;99.90
49218;DHT22;35045;51.194;7.268;2023-12-14T09:07:17;5.70;99.90
49218;DHT22;35045;51.194;7.268;2023-12-14T09:09:43;5.80;99.90
49218;DHT22;35045;51.194;7.268;2023-12-14T09:12:10;5.90;99.90
49218;DHT22;35045;51.194;7.268;2023-12-14T09:14:36;5.90;99.90
49218;DHT22;35045;51.194;7.268;2023-12-14T09:17:02;5.80;99.90
49218;DHT22;35045;51.194;7.268;2023-12-14T09:19:30;5.80;99.90
49218;DHT22;35045;51.194;7.268;2023-12-14T09:21:57;5.80;99.90
49218;DHT22;35045;51.194;7.268;2023-12-14T09:24:24;5.80;99.90
49218;DHT22;35045;51.194;7.268;2023-12-14T09:26:52;5.80;99.90
49218;DHT22;35045;51.194;7.268;2023-12-14T09:29:18;5.70;99.90
49218;DHT22;35045;51.194;7.268;2023-12-14T09:31:46;5.70;99.90
49218;DHT22;35045;51.194;7.268;2023-12-14T09:34:12;5.80;99.90
49218;DHT22;35045;51.194;7.268;2023-12-14T09:36:39;5.80;99.90
49218;DHT22;35045;51.194;7.268;2023-12-14T09:39:05;5.90;99.90
49218;DHT22;35045;51.194;7.268;2023-12-14T09:41:37;5.80;99.90
49218;DHT22;35045;51.194;7.268;2023-12-14T09:44:05;5.80;99.90
49218;DHT22;35045;51.194;7.268;2023-12-14T09:46:36;5.70;99.90
49218;DHT22;35045;51.194;7.268;2023-12-14T09:49:04;5.70;99.90
49218;DHT22;35045;51.194;7.268;2023-12-14T09:51:30;5.60;99.90
49218;DHT22;35045;51.194;7.268;2023-12-14T09:53:57;5.50;99.90
49218;DHT22;35045;51.194;7.268;2023-12-14T09:56:26;5.30;99.90
49218;DHT22;35045;51.194;7.268;2023-12-14T09:58:53;5.30;99.90
49218;DHT22;35045;51.194;7.268;2023-12-14T10:01:25;5.40;99.90
49218;DHT22;35045;51.194;7.268;2023-12-14T10:04:11;5.60;99.90
49218;DHT22;35045;51.194;7.268;2023-12-14T10:06:39;5.60;99.90
49218;DHT22;35045;51.194;7.268;2023-12-14T10:09:06;5.60;99.90
49218;DHT22;35045;51.194;7.268;2023-12-14T10:11:36;5.60;99.90
49218;DHT22;35045;51.194;7.268;2023-12-14T10:14:03;5.50;99.90
49218;DHT22;35045;51.194;7.268;2023-12-14T10:16:33;5.50;99.90
49218;DHT22;35045;51.194;7.268;2023-12-14T10:19:00;5.50;99.90
49218;DHT22;35045;51.194;7.268;2023-12-14T10:21:27;5.60;99.90
49218;DHT22;35045;51.194;7.268;2023-12-14T10:23:57;5.60;99.90
49218;DHT22;35045;51.194;7.268;2023-12-14T10:26:24;5.70;99.90
49218;DHT22;35045;51.194;7.268;2023-12-14T10:28:54;5.70;99.90
49218;DHT22;35045;51.194;7.268;2023-12-14T10:31:20;5.60;99.90
49218;DHT22;35045;51.194;7.268;2023-12-14T10:33:47;5.60;99.90
49218;DHT22;35045;51.194;7.268;2023-12-14T10:36:15;5.70;99.90
49218;DHT22;35045;51.194;7.268;2023-12-14T10:38:44;5.80;99.90
49218;DHT22;35045;51.194;7.268;2023-12-14T10:41:13;5.80;99.90
49218;DHT22;35045;51.194;7.268;2023-12-14T10:43:41;5.90;99.90
49218;DHT22;35045;51.194;7.268;2023-12-14T10:46:10;6.00;99.90
49218;DHT22;35045;51.194;7.268;2023-12-14T10:48:36;6.10;99.90
49218;DHT22;35045;51.194;7.268;2023-12-14T10:51:03;6.10;99.90
49218;DHT22;35045;51.194;7.268;2023-12-14T10:53:32;6.10;99.90
49218;DHT22;35045;51.194;7.268;2023-12-14T10:56:00;6.10;99.90
49218;DHT22;35045;51.194;7.268;2023-12-14T10:58:51;6.10;99.90
49218;DHT22;35045;51.194;7.268;2023-12-14T11:01:20;5.80;99.90
49218;DHT22;35045;51.194;7.268;2023-12-14T11:03:47;5.70;99.90
49218;DHT22;35045;51.194;7.268;2023-12-14T11:08:57;5.80;99.90
49218;DHT22;35045;51.194;7.268;2023-12-14T11:11:28;5.90;99.90
49218;DHT22;35045;51.194;7.268;2023-12-14T11:13:56;5.90;99.90
49218;DHT22;35045;51.194;7.268;2023-12-14T11:16:23;5.80;99.90
49218;DHT22;35045;51.194;7.268;2023-12-14T11:22:12;5.70;99.90
49218;DHT22;35045;51.194;7.268;2023-12-14T11:24:51;5.80;99.90
49218;DHT22;35045;51.194;7.268;2023-12-14T11:27:20;5.90;99.90
49218;DHT22;35045;51.194;7.268;2023-12-14T11:29:48;5.90;99.90
49218;DHT22;35045;51.194;7.268;2023-12-14T11:32:14;6.10;99.90
49218;DHT22;35045;51.194;7.268;2023-12-14T11:34:42;6.10;99.90
49218;DHT22;35045;51.194;7.268;2023-12-14T11:37:08;6.20;99.90
49218;DHT22;35045;51.194;7.268;2023-12-14T11:39:35;6.10;99.90
49218;DHT22;35045;51.194;7.268;2023-12-14T11:42:04;6.00;99.90
49218;DHT22;35045;51.194;7.268;2023-12-14T11:44:32;5.90;99.90
49218;DHT22;35045;51.194;7.268;2023-12-14T11:46:59;5.80;99.90
49218;DHT22;35045;51.194;7.268;2023-12-14T11:49:26;5.80;99.90
49218;DHT22;35045;51.194;7.268;2023-12-14T11:51:54;5.70;99.90
49218;DHT22;35045;51.194;7.268;2023-12-14T11:54:21;5.60;99.90
49218;DHT22;35045;51.194;7.268;2023-12-14T11:56:49;5.60;99.90
49218;DHT22;35045;51.194;7.268;2023-12-14T11:59:16;5.70;99.90
49218;DHT22;35045;51.194;7.268;2023-12-14T12:01:55;5.70;99.90
49218;DHT22;35045;51.194;7.268;2023-12-14T12:04:23;5.60;99.90
49218;DHT22;35045;51.194;7.268;2023-12-14T12:06:50;5.60;99.90
49218;DHT22;35045;51.194;7.268;2023-12-14T12:09:42;5.40;99.90
49218;DHT22;35045;51.194;7.268;2023-12-14T12:12:10;5.30;99.90
49218;DHT22;35045;51.194;7.268;2023-12-14T12:14:38;5.30;99.90
49218;DHT22;35045;51.194;7.268;2023-12-14T12:17:05;5.30;99.90
49218;DHT22;35045;51.194;7.268;2023-12-14T12:19:36;5.30;99.90
49218;DHT22;35045;51.194;7.268;2023-12-14T12:22:03;5.50;99.90
49218;DHT22;35045;51.194;7.268;2023-12-14T12:24:30;5.50;99.90
49218;DHT22;35045;51.194;7.268;2023-12-14T12:26:58;5.50;99.90
49218;DHT22;35045;51.194;7.268;2023-12-14T12:29:24;5.50;99.90
49218;DHT22;35045;51.194;7.268;2023-12-14T12:31:50;5.50;99.90
49218;DHT22;35045;51.194;7.268;2023-12-14T12:34:18;5.50;99.90
49218;DHT22;35045;51.194;7.268;2023-12-14T12:36:44;5.40;99.90
49218;DHT22;35045;51.194;7.268;2023-12-14T12:39:10;5.30;99.90
49218;DHT22;35045;51.194;7.268;2023-12-14T12:41:37;5.30;99.90
49218;DHT22;35045;51.194;7.268;2023-12-14T12:44:04;5.30;99.90
49218;DHT22;35045;51.194;7.268;2023-12-14T12:46:33;5.30;99.90
49218;DHT22;35045;51.194;7.268;2023-12-14T12:49:00;5.40;99.90
49218;DHT22;35045;51.194;7.268;2023-12-14T12:51:27;5.50;99.90
49218;DHT22;35045;51.194;7.268;2023-12-14T12:53:55;5.50;99.90
49218;DHT22;35045;51.194;7.268;2023-12-14T12:56:26;5.60;99.90
49218;DHT22;35045;51.194;7.268;2023-12-14T12:58:54;5.50;99.90
49218;DHT22;35045;51.194;7.268;2023-12-14T13:01:21;5.60;99.90
49218;DHT22;35045;51.194;7.268;2023-12-14T13:03:55;5.70;99.90
49218;DHT22;35045;51.194;7.268;2023-12-14T13:06:25;5.90;99.90
49218;DHT22;35045;51.194;7.268;2023-12-14T13:08:52;6.00;99.90
49218;DHT22;35045;51.194;7.268;2023-12-14T13:11:19;5.90;99.90
49218;DHT22;35045;51.194;7.268;2023-12-14T13:13:45;5.90;99.90
49218;DHT22;35045;51.194;7.268;2023-12-14T13:16:11;5.80;99.90
49218;DHT22;35045;51.194;7.268;2023-12-14T13:18:43;5.80;99.90
49218;DHT22;35045;51.194;7.268;2023-12-14T13:21:10;5.80;99.90
49218;DHT22;35045;51.194;7.268;2023-12-14T13:23:36;5.80;99.90
49218;DHT22;35045;51.194;7.268;2023-12-14T13:26:02;5.80;99.90
49218;DHT22;35045;51.194;7.268;2023-12-14T13:28:29;5.80;99.90
49218;DHT22;35045;51.194;7.268;2023-12-14T13:30:55;5.70;99.90
49218;DHT22;35045;51.194;7.268;2023-12-14T13:33:21;5.70;99.90
49218;DHT22;35045;51.194;7.268;2023-12-14T13:35:48;5.70;99.90
49218;DHT22;35045;51.194;7.268;2023-12-14T13:38:14;5.70;99.90
49218;DHT22;35045;51.194;7.268;2023-12-14T13:40:40;5.70;99.90
49218;DHT22;35045;51.194;7.268;2023-12-14T13:43:07;5.70;99.90
49218;DHT22;35045;51.194;7.268;2023-12-14T13:45:38;5.60;99.90
49218;DHT22;35045;51.194;7.268;2023-12-14T13:48:04;5.50;99.90
49218;DHT22;35045;51.194;7.268;2023-12-14T13:50:30;5.50;99.90
49218;DHT22;35045;51.194;7.268;2023-12-14T13:52:56;5.60;99.90
49218;DHT22;35045;51.194;7.268;2023-12-14T13:55:23;5.70;99.90
49218;DHT22;35045;51.194;7.268;2023-12-14T13:57:49;5.70;99.90
49218;DHT22;35045;51.194;7.268;2023-12-14T14:00:15;5.80;99.90
49218;DHT22;35045;51.194;7.268;2023-12-14T14:02:47;5.70;99.90
49218;DHT22;35045;51.194;7.268;2023-12-14T14:05:14;5.70;99.90
49218;DHT22;35045;51.194;7.268;2023-12-14T14:07:40;5.70;99.90
49218;DHT22;35045;51.194;7.268;2023-12-14T14:10:06;5.70;99.90
49218;DHT22;35045;51.194;7.268;2023-12-14T14:12:33;5.60;99.90
49218;DHT22;35045;51.194;7.268;2023-12-14T14:14:59;5.60;99.90
49218;DHT22;35045;51.194;7.268;2023-12-14T14:17:25;5.60;99.90
49218;DHT22;35045;51.194;7.268;2023-12-14T14:19:51;5.40;99.90
49218;DHT22;35045;51.194;7.268;2023-12-14T14:22:17;5.30;99.90
49218;DHT22;35045;51.194;7.268;2023-12-14T14:24:44;5.30;99.90
49218;DHT22;35045;51.194;7.268;2023-12-14T14:27:11;5.40;99.90
49218;DHT22;35045;51.194;7.268;2023-12-14T14:29:37;5.40;99.90
49218;DHT22;35045;51.194;7.268;2023-12-14T14:32:03;5.50;99.90
49218;DHT22;35045;51.194;7.268;2023-12-14T14:34:29;5.60;99.90
49218;DHT22;35045;51.194;7.268;2023-12-14T14:36:56;5.50;99.90
49218;DHT22;35045;51.194;7.268;2023-12-14T14:39:22;5.50;99.90
49218;DHT22;35045;51.194;7.268;2023-12-14T14:41:48;5.50;99.90
49218;DHT22;35045;51.194;7.268;2023-12-14T14:44:14;5.50;99.90
49218;DHT22;35045;51.194;7.268;2023-12-14T14:46:40;5.60;99.90
49218;DHT22;35045;51.194;7.268;2023-12-14T14:49:07;5.60;99.90
49218;DHT22;35045;51.194;7.268;2023-12-14T14:51:33;5.50;99.90
49218;DHT22;35045;51.194;7.268;2023-12-14T14:54:00;5.30;99.90
49218;DHT22;35045;51.194;7.268;2023-12-14T14:56:26;5.20;99.90
49218;DHT22;35045;51.194;7.268;2023-12-14T14:58:52;5.30;99.90
49218;DHT22;35045;51.194;7.268;2023-12-14T15:01:18;5.30;99.90
49218;DHT22;35045;51.194;7.268;2023-12-14T15:03:45;5.40;99.90
49218;DHT22;35045;51.194;7.268;2023-12-14T15:06:11;5.30;99.90
49218;DHT22;35045;51.194;7.268;2023-12-14T15:08:37;5.30;99.90
49218;DHT22;35045;51.194;7.268;2023-12-14T15:11:04;5.30;99.90
49218;DHT22;35045;51.194;7.268;2023-12-14T15:13:32;5.10;99.90
49218;DHT22;35045;51.194;7.268;2023-12-14T15:15:58;5.10;99.90
49218;DHT22;35045;51.194;7.268;2023-12-14T15:18:24;5.20;99.90
49218;DHT22;35045;51.194;7.268;2023-12-14T15:20:50;5.10;99.90
49218;DHT22;35045;51.194;7.268;2023-12-14T15:23:19;5.10;99.90
49218;DHT22;35045;51.194;7.268;2023-12-14T15:25:45;5.10;99.90
49218;DHT22;35045;51.194;7.268;2023-12-14T15:28:11;5.10;99.90
49218;DHT22;35045;51.194;7.268;2023-12-14T15:30:39;5.10;99.90
49218;DHT22;35045;51.194;7.268;2023-12-14T15:33:05;5.20;99.90
49218;DHT22;35045;51.194;7.268;2023-12-14T15:35:32;5.20;99.90
49218;DHT22;35045;51.194;7.268;2023-12-14T15:38:01;5.30;99.90
49218;DHT22;35045;51.194;7.268;2023-12-14T15:40:27;5.30;99.90
49218;DHT22;35045;51.194;7.268;2023-12-14T15:42:53;5.30;99.90
49218;DHT22;35045;51.194;7.268;2023-12-14T15:45:23;5.20;99.90
49218;DHT22;35045;51.194;7.268;2023-12-14T15:47:49;5.20;99.90
49218;DHT22;35045;51.194;7.268;2023-12-14T15:50:16;5.30;99.90